createdAt,value
2022-11-20T00:00:13.594Z,12.20
2022-11-20T00:01:24.475Z,12.20
2022-11-20T00:02:26.715Z,12.20
2022-11-20T00:03:28.840Z,12.20
2022-11-20T00:04:31.060Z,12.10
2022-11-20T00:05:35.011Z,12.10
2022-11-20T00:06:37.079Z,12.10
2022-11-20T00:07:42.236Z,12.00
2022-11-20T00:08:45.509Z,11.90
2022-11-20T00:09:47.677Z,11.90
2022-11-20T00:10:49.860Z,11.90
2022-11-20T00:11:51.987Z,11.90
2022-11-20T00:12:54.085Z,11.90
2022-11-20T00:13:58.578Z,11.80
2022-11-20T00:15:01.457Z,11.90
2022-11-20T00:16:06.217Z,11.90
2022-11-20T00:17:08.332Z,11.80
2022-11-20T00:18:10.507Z,11.80
2022-11-20T00:19:12.706Z,11.80
2022-11-20T00:20:15.352Z,11.80
2022-11-20T00:21:23.156Z,11.70
2022-11-20T00:22:25.296Z,11.70
2022-11-20T00:23:27.469Z,11.80
2022-11-20T00:24:29.665Z,11.80
2022-11-20T00:25:31.753Z,11.80
2022-11-20T00:26:34.038Z,11.70
2022-11-20T00:27:36.337Z,11.70
2022-11-20T00:28:38.898Z,11.70
2022-11-20T00:29:41.143Z,11.70
2022-11-20T00:30:43.283Z,11.70
2022-11-20T00:31:45.388Z,11.60
2022-11-20T00:32:48.423Z,11.60
2022-11-20T00:33:51.487Z,11.50
2022-11-20T00:34:53.689Z,11.50
2022-11-20T00:36:01.276Z,11.50
2022-11-20T00:37:06.068Z,11.50
2022-11-20T00:38:09.098Z,11.50
2022-11-20T00:39:11.454Z,11.50
2022-11-20T00:40:14.210Z,11.50
2022-11-20T00:41:17.712Z,11.50
2022-11-20T00:42:20.315Z,11.50
2022-11-20T00:43:23.316Z,11.50
2022-11-20T00:44:25.627Z,11.50
2022-11-20T00:45:28.210Z,11.50
2022-11-20T00:46:30.847Z,11.50
2022-11-20T00:47:36.127Z,11.50
2022-11-20T00:48:38.698Z,11.40
2022-11-20T00:49:41.082Z,11.40
2022-11-20T00:50:44.006Z,11.40
2022-11-20T00:51:46.834Z,11.40
2022-11-20T00:52:49.267Z,11.40
2022-11-20T00:53:52.425Z,11.40
2022-11-20T00:54:58.280Z,11.50
2022-11-20T00:56:03.174Z,11.50
2022-11-20T00:57:05.757Z,11.50
2022-11-20T00:58:12.987Z,11.50
2022-11-20T00:59:16.439Z,11.50
2022-11-20T01:00:19.425Z,11.50
2022-11-20T01:01:28.351Z,11.50
2022-11-20T01:02:31.096Z,11.50
2022-11-20T01:03:34.416Z,11.50
2022-11-20T01:04:36.678Z,11.60
2022-11-20T01:05:39.147Z,11.60
2022-11-20T01:06:41.892Z,11.60
2022-11-20T01:07:44.269Z,11.60
2022-11-20T01:08:48.521Z,11.60
2022-11-20T01:09:50.946Z,11.60
2022-11-20T01:10:53.421Z,11.60
2022-11-20T01:11:55.897Z,11.60
2022-11-20T01:13:19.328Z,11.60
2022-11-20T01:14:25.232Z,11.60
2022-11-20T01:15:27.336Z,11.70
2022-11-20T01:16:38.623Z,11.70
2022-11-20T01:17:40.766Z,11.70
2022-11-20T01:18:46.744Z,11.60
2022-11-20T01:19:52.330Z,11.60
2022-11-20T01:20:54.526Z,11.60
2022-11-20T01:21:56.735Z,11.60
2022-11-20T01:22:58.843Z,11.60
2022-11-20T01:24:02.046Z,11.60
2022-11-20T01:25:04.438Z,11.60
2022-11-20T01:26:09.872Z,11.60
2022-11-20T01:27:11.982Z,11.50
2022-11-20T01:28:14.079Z,11.50
2022-11-20T01:29:20.586Z,11.50
2022-11-20T01:30:23.000Z,11.50
2022-11-20T01:31:27.953Z,11.50
2022-11-20T01:32:30.097Z,11.60
2022-11-20T01:33:32.242Z,11.60
2022-11-20T01:34:34.350Z,11.50
2022-11-20T01:35:36.556Z,11.50
2022-11-20T01:36:39.607Z,11.50
2022-11-20T01:37:41.712Z,11.50
2022-11-20T01:38:44.785Z,11.50
2022-11-20T01:39:47.457Z,11.50
2022-11-20T01:40:56.845Z,11.50
2022-11-20T01:42:17.632Z,11.50
2022-11-20T01:43:23.737Z,11.60
2022-11-20T01:44:53.507Z,11.60
2022-11-20T01:46:18.962Z,11.60
2022-11-20T01:47:48.061Z,11.60
2022-11-20T01:48:58.682Z,11.60
2022-11-20T01:50:15.987Z,11.60
2022-11-20T01:51:40.328Z,11.50
2022-11-20T01:52:55.833Z,11.50
2022-11-20T01:54:02.463Z,11.50
2022-11-20T01:55:20.524Z,11.40
2022-11-20T01:56:23.697Z,11.40
2022-11-20T01:57:29.065Z,11.40
2022-11-20T01:58:36.805Z,11.30
2022-11-20T01:59:46.432Z,11.30
2022-11-20T02:00:48.751Z,11.30
2022-11-20T02:01:50.943Z,11.30
2022-11-20T02:02:59.734Z,11.30
2022-11-20T02:04:03.056Z,11.30
2022-11-20T02:05:18.365Z,11.20
2022-11-20T02:06:38.332Z,11.10
2022-11-20T02:07:40.979Z,11.10
2022-11-20T02:08:43.210Z,11.10
2022-11-20T02:09:46.605Z,11.10
2022-11-20T02:10:48.758Z,11.10
2022-11-20T02:11:50.967Z,11.10
2022-11-20T02:13:11.917Z,11.10
2022-11-20T02:14:15.682Z,11.10
2022-11-20T02:15:17.957Z,11.10
2022-11-20T02:16:33.586Z,11.10
2022-11-20T02:17:36.036Z,11.10
2022-11-20T02:18:39.425Z,11.10
2022-11-20T02:19:41.493Z,11.10
2022-11-20T02:20:46.467Z,11.10
2022-11-20T02:22:03.013Z,11.10
2022-11-20T02:23:18.089Z,11.10
2022-11-20T02:24:21.246Z,11.20
2022-11-20T02:25:25.332Z,11.20
2022-11-20T02:26:29.774Z,11.20
2022-11-20T02:27:32.260Z,11.20
2022-11-20T02:28:34.615Z,11.10
2022-11-20T02:29:45.664Z,11.20
2022-11-20T02:30:47.795Z,11.20
2022-11-20T02:31:49.938Z,11.20
2022-11-20T02:32:52.427Z,11.20
2022-11-20T02:33:59.159Z,11.20
2022-11-20T02:35:30.374Z,11.20
2022-11-20T02:36:34.157Z,11.20
2022-11-20T02:37:39.974Z,11.20
2022-11-20T02:38:43.419Z,11.20
2022-11-20T02:39:51.185Z,11.20
2022-11-20T02:40:55.671Z,11.20
2022-11-20T02:41:58.286Z,11.30
2022-11-20T02:43:00.406Z,11.30
2022-11-20T02:44:03.157Z,11.30
2022-11-20T02:45:06.221Z,11.30
2022-11-20T02:46:09.203Z,11.40
2022-11-20T02:47:11.514Z,11.40
2022-11-20T02:48:13.631Z,11.50
2022-11-20T02:49:15.854Z,11.50
2022-11-20T02:50:18.301Z,11.50
2022-11-20T02:51:20.521Z,11.60
2022-11-20T02:52:22.564Z,11.60
2022-11-20T02:53:24.743Z,11.60
2022-11-20T02:54:26.920Z,11.60
2022-11-20T02:55:29.076Z,11.60
2022-11-20T02:56:31.609Z,11.60
2022-11-20T02:57:33.745Z,11.70
2022-11-20T02:58:35.880Z,11.70
2022-11-20T02:59:37.947Z,11.70
2022-11-20T03:00:40.115Z,11.80
2022-11-20T03:01:42.556Z,11.80
2022-11-20T03:02:44.961Z,11.80
2022-11-20T03:03:49.767Z,11.80
2022-11-20T03:04:52.301Z,11.90
2022-11-20T03:05:54.459Z,11.90
2022-11-20T03:06:56.652Z,11.90
2022-11-20T03:07:59.046Z,11.90
2022-11-20T03:09:01.369Z,12.00
2022-11-20T03:10:04.165Z,12.00
2022-11-20T03:11:08.372Z,12.00
2022-11-20T03:12:10.400Z,12.00
2022-11-20T03:13:12.597Z,12.10
2022-11-20T03:14:15.379Z,12.10
2022-11-20T03:15:17.693Z,12.10
2022-11-20T03:16:22.277Z,12.10
2022-11-20T03:17:24.362Z,12.10
2022-11-20T03:18:29.973Z,12.10
2022-11-20T03:19:32.783Z,12.10
2022-11-20T03:20:35.507Z,12.20
2022-11-20T03:21:37.605Z,12.20
2022-11-20T03:22:39.699Z,12.20
2022-11-20T03:23:42.042Z,12.20
2022-11-20T03:24:44.242Z,12.20
2022-11-20T03:25:46.343Z,12.20
2022-11-20T03:26:48.556Z,12.20
2022-11-20T03:27:50.736Z,12.20
2022-11-20T03:29:01.743Z,12.10
2022-11-20T03:30:04.684Z,12.10
2022-11-20T03:31:12.562Z,12.10
2022-11-20T03:32:14.691Z,12.00
2022-11-20T03:33:16.823Z,11.90
2022-11-20T03:34:18.987Z,11.90
2022-11-20T03:35:21.090Z,11.80
2022-11-20T03:36:23.553Z,11.80
2022-11-20T03:37:25.707Z,11.80
2022-11-20T03:38:31.508Z,11.80
2022-11-20T03:39:33.608Z,11.80
2022-11-20T03:40:36.802Z,11.80
2022-11-20T03:41:41.878Z,11.80
2022-11-20T03:42:47.119Z,11.90
2022-11-20T03:43:56.110Z,11.90
2022-11-20T03:45:00.450Z,11.90
2022-11-20T03:46:03.593Z,11.90
2022-11-20T03:47:05.705Z,11.90
2022-11-20T03:48:07.874Z,11.90
2022-11-20T03:49:11.891Z,11.90
2022-11-20T03:50:16.919Z,11.90
2022-11-20T03:51:22.574Z,11.90
2022-11-20T03:52:26.669Z,11.90
2022-11-20T03:53:29.015Z,12.00
2022-11-20T03:54:31.233Z,11.90
2022-11-20T03:55:33.422Z,12.00
2022-11-20T03:56:40.366Z,12.00
2022-11-20T03:57:42.569Z,12.00
2022-11-20T03:58:45.113Z,12.00
2022-11-20T03:59:47.293Z,12.10
2022-11-20T04:00:49.458Z,12.10
2022-11-20T04:01:51.731Z,12.10
2022-11-20T04:02:53.943Z,12.10
2022-11-20T04:03:57.570Z,12.10
2022-11-20T04:05:00.572Z,12.10
2022-11-20T04:06:24.501Z,12.10
2022-11-20T04:07:26.761Z,12.10
2022-11-20T04:08:30.014Z,12.20
2022-11-20T04:09:32.313Z,12.20
2022-11-20T04:10:34.649Z,12.20
2022-11-20T04:11:40.612Z,12.20
2022-11-20T04:12:42.787Z,12.20
2022-11-20T04:13:48.717Z,12.10
2022-11-20T04:14:53.561Z,12.10
2022-11-20T04:15:58.999Z,12.10
2022-11-20T04:17:01.168Z,12.20
2022-11-20T04:18:03.324Z,12.10
2022-11-20T04:19:10.448Z,12.10
2022-11-20T04:20:12.809Z,12.10
2022-11-20T04:21:14.890Z,12.10
2022-11-20T04:22:17.081Z,12.10
2022-11-20T04:23:19.239Z,12.10
2022-11-20T04:24:21.424Z,12.20
2022-11-20T04:25:23.597Z,12.20
2022-11-20T04:26:27.759Z,12.20
2022-11-20T04:27:31.350Z,12.20
2022-11-20T04:28:33.592Z,12.20
2022-11-20T04:29:35.899Z,12.20
2022-11-20T04:30:38.195Z,12.20
2022-11-20T04:31:40.450Z,12.20
2022-11-20T04:32:42.657Z,12.20
2022-11-20T04:33:45.419Z,12.20
2022-11-20T04:34:47.747Z,12.20
2022-11-20T04:35:49.873Z,12.20
2022-11-20T04:36:54.366Z,12.30
2022-11-20T04:37:56.528Z,12.30
2022-11-20T04:39:04.088Z,12.30
2022-11-20T04:40:06.703Z,12.30
2022-11-20T04:41:12.661Z,12.30
2022-11-20T04:42:29.769Z,12.40
2022-11-20T04:43:32.730Z,12.40
2022-11-20T04:44:34.823Z,12.40
2022-11-20T04:45:36.911Z,12.40
2022-11-20T04:46:41.392Z,12.40
2022-11-20T04:47:43.582Z,12.40
2022-11-20T04:48:46.081Z,12.50
2022-11-20T04:49:48.581Z,12.50
2022-11-20T04:50:51.146Z,12.50
2022-11-20T04:51:56.179Z,12.50
2022-11-20T04:52:58.374Z,12.50
2022-11-20T04:54:00.622Z,12.60
2022-11-20T04:55:02.861Z,12.60
2022-11-20T04:56:07.939Z,12.60
2022-11-20T04:57:14.253Z,12.60
2022-11-20T04:58:17.813Z,12.60
2022-11-20T04:59:20.376Z,12.60
2022-11-20T05:00:23.251Z,12.60
2022-11-20T05:01:26.198Z,12.60
2022-11-20T05:02:28.305Z,12.50
2022-11-20T05:03:30.510Z,12.50
2022-11-20T05:04:32.722Z,12.50
2022-11-20T05:05:35.887Z,12.40
2022-11-20T05:06:38.056Z,12.40
2022-11-20T05:07:40.157Z,12.40
2022-11-20T05:08:43.036Z,12.30
2022-11-20T05:09:45.638Z,12.30
2022-11-20T05:10:48.609Z,12.30
2022-11-20T05:11:51.728Z,12.30
2022-11-20T05:12:54.180Z,12.20
2022-11-20T05:13:59.163Z,12.20
2022-11-20T05:15:01.403Z,12.20
2022-11-20T05:16:12.468Z,12.20
2022-11-20T05:17:16.495Z,12.20
2022-11-20T05:18:18.690Z,12.20
2022-11-20T05:19:21.061Z,12.20
2022-11-20T05:20:23.453Z,12.30
2022-11-20T05:21:25.655Z,12.30
2022-11-20T05:22:27.855Z,12.20
2022-11-20T05:23:33.710Z,12.30
2022-11-20T05:24:36.013Z,12.20
2022-11-20T05:25:38.337Z,12.30
2022-11-20T05:26:40.513Z,12.30
2022-11-20T05:27:42.774Z,12.30
2022-11-20T05:28:45.130Z,12.30
2022-11-20T05:29:47.590Z,12.30
2022-11-20T05:30:50.322Z,12.30
2022-11-20T05:31:52.921Z,12.30
2022-11-20T05:32:55.590Z,12.30
2022-11-20T05:33:58.845Z,12.20
2022-11-20T05:35:01.032Z,12.20
2022-11-20T05:36:05.199Z,12.20
2022-11-20T05:37:07.655Z,12.20
2022-11-20T05:38:10.238Z,12.20
2022-11-20T05:39:12.540Z,12.10
2022-11-20T05:40:15.383Z,12.10
2022-11-20T05:41:20.565Z,12.10
2022-11-20T05:42:31.914Z,12.10
2022-11-20T05:43:35.953Z,12.00
2022-11-20T05:44:38.415Z,12.00
2022-11-20T05:45:47.705Z,12.10
2022-11-20T05:46:50.573Z,12.10
2022-11-20T05:47:52.669Z,12.00
2022-11-20T05:48:54.995Z,12.10
2022-11-20T05:49:57.318Z,12.10
2022-11-20T05:51:01.466Z,12.10
2022-11-20T05:52:03.903Z,12.10
2022-11-20T05:53:06.150Z,12.10
2022-11-20T05:54:08.336Z,12.10
2022-11-20T05:55:10.804Z,12.10
2022-11-20T05:56:23.124Z,12.10
2022-11-20T05:57:25.375Z,12.20
2022-11-20T05:58:28.252Z,12.20
2022-11-20T05:59:30.446Z,12.20
2022-11-20T06:00:32.652Z,12.20
2022-11-20T06:01:37.216Z,12.20
2022-11-20T06:02:39.507Z,12.20
2022-11-20T06:03:51.835Z,12.20
2022-11-20T06:04:56.233Z,12.20
2022-11-20T06:06:01.928Z,12.20
2022-11-20T06:07:05.949Z,12.20
2022-11-20T06:08:08.366Z,12.20
2022-11-20T06:09:10.763Z,12.20
2022-11-20T06:10:13.236Z,12.30
2022-11-20T06:11:16.738Z,12.30
2022-11-20T06:12:19.027Z,12.30
2022-11-20T06:13:21.574Z,12.30
2022-11-20T06:14:23.917Z,12.30
2022-11-20T06:15:26.726Z,12.30
2022-11-20T06:16:29.151Z,12.30
2022-11-20T06:17:31.564Z,12.20
2022-11-20T06:18:33.966Z,12.20
2022-11-20T06:19:36.305Z,12.20
2022-11-20T06:20:42.085Z,12.20
2022-11-20T06:21:44.755Z,12.20
2022-11-20T06:22:47.153Z,12.20
2022-11-20T06:23:50.431Z,12.20
2022-11-20T06:24:52.675Z,12.20
2022-11-20T06:25:54.829Z,12.20
2022-11-20T06:26:57.180Z,12.20
2022-11-20T06:27:59.375Z,12.30
2022-11-20T06:29:01.671Z,12.20
2022-11-20T06:30:04.952Z,12.20
2022-11-20T06:31:08.202Z,12.30
2022-11-20T06:32:10.484Z,12.30
2022-11-20T06:33:12.781Z,12.30
2022-11-20T06:34:15.032Z,12.30
2022-11-20T06:35:17.277Z,12.30
2022-11-20T06:36:21.749Z,12.30
2022-11-20T06:37:23.921Z,12.30
2022-11-20T06:38:27.510Z,12.30
2022-11-20T06:39:29.819Z,12.30
2022-11-20T06:40:32.256Z,12.30
2022-11-20T06:41:34.764Z,12.30
2022-11-20T06:42:37.182Z,12.30
2022-11-20T06:43:39.600Z,12.30
2022-11-20T06:44:42.115Z,12.30
2022-11-20T06:45:44.875Z,12.20
2022-11-20T06:46:49.016Z,12.20
2022-11-20T06:47:52.091Z,12.20
2022-11-20T06:48:54.840Z,12.30
2022-11-20T06:49:57.364Z,12.20
2022-11-20T06:50:59.947Z,12.30
2022-11-20T06:52:02.412Z,12.20
2022-11-20T06:53:05.548Z,12.20
2022-11-20T06:54:07.852Z,12.20
2022-11-20T06:55:10.190Z,12.30
2022-11-20T06:56:12.533Z,12.20
2022-11-20T06:57:14.990Z,12.20
2022-11-20T06:58:18.431Z,12.20
2022-11-20T06:59:21.174Z,12.30
2022-11-20T07:00:23.650Z,12.30
2022-11-20T07:01:25.925Z,12.30
2022-11-20T07:02:28.588Z,12.30
2022-11-20T07:03:31.149Z,12.30
2022-11-20T07:04:33.274Z,12.30
2022-11-20T07:05:36.029Z,12.40
2022-11-20T07:06:38.111Z,12.30
2022-11-20T07:07:40.405Z,12.40
2022-11-20T07:08:42.471Z,12.40
2022-11-20T07:09:44.573Z,12.40
2022-11-20T07:10:46.710Z,12.40
2022-11-20T07:11:48.799Z,12.40
2022-11-20T07:12:52.292Z,12.50
2022-11-20T07:13:54.430Z,12.50
2022-11-20T07:14:56.649Z,12.50
2022-11-20T07:16:04.132Z,12.50
2022-11-20T07:17:06.284Z,12.50
2022-11-20T07:18:08.434Z,12.50
2022-11-20T07:19:10.619Z,12.50
2022-11-20T07:20:13.521Z,12.50
2022-11-20T07:21:15.998Z,12.50
2022-11-20T07:22:18.324Z,12.50
2022-11-20T07:23:20.437Z,12.50
2022-11-20T07:24:22.556Z,12.40
2022-11-20T07:25:29.169Z,12.40
2022-11-20T07:26:31.320Z,12.40
2022-11-20T07:27:33.796Z,12.40
2022-11-20T07:28:36.483Z,12.40
2022-11-20T07:29:38.566Z,12.30
2022-11-20T07:30:40.719Z,12.30
2022-11-20T07:31:43.141Z,12.30
2022-11-20T07:32:51.981Z,12.30
2022-11-20T07:33:54.137Z,12.30
2022-11-20T07:34:56.198Z,12.30
2022-11-20T07:36:01.111Z,12.30
2022-11-20T07:37:09.002Z,12.30
2022-11-20T07:38:12.566Z,12.30
2022-11-20T07:39:14.779Z,12.30
2022-11-20T07:40:17.797Z,12.30
2022-11-20T07:41:20.112Z,12.40
2022-11-20T07:42:22.319Z,12.40
2022-11-20T07:43:26.884Z,12.40
2022-11-20T07:44:29.205Z,12.40
2022-11-20T07:45:31.447Z,12.40
2022-11-20T07:46:33.680Z,12.40
2022-11-20T07:47:38.614Z,12.50
2022-11-20T07:48:41.277Z,12.50
2022-11-20T07:49:43.777Z,12.50
2022-11-20T07:50:45.862Z,12.60
2022-11-20T07:51:51.837Z,12.60
2022-11-20T07:53:02.168Z,12.70
2022-11-20T07:54:04.434Z,12.70
2022-11-20T07:55:07.077Z,12.80
2022-11-20T07:56:09.362Z,12.80
2022-11-20T07:57:11.711Z,12.90
2022-11-20T07:58:14.974Z,13.00
2022-11-20T07:59:17.494Z,13.00
2022-11-20T08:00:19.746Z,13.10
2022-11-20T08:01:21.945Z,13.10
2022-11-20T08:02:24.400Z,13.10
2022-11-20T08:03:26.538Z,13.00
2022-11-20T08:04:28.641Z,13.10
2022-11-20T08:05:30.818Z,13.00
2022-11-20T08:06:32.934Z,13.00
2022-11-20T08:07:43.078Z,12.90
2022-11-20T08:08:45.375Z,12.90
2022-11-20T08:09:47.669Z,13.00
2022-11-20T08:10:49.752Z,13.00
2022-11-20T08:12:15.006Z,13.10
2022-11-20T08:13:35.819Z,13.20
2022-11-20T08:14:37.974Z,13.20
2022-11-20T08:15:41.299Z,13.30
2022-11-20T08:16:50.660Z,13.30
2022-11-20T08:18:23.370Z,13.40
2022-11-20T08:19:16.295Z,13.50
2022-11-20T08:20:18.520Z,13.60
2022-11-20T08:21:20.603Z,13.60
2022-11-20T08:22:23.000Z,13.70
2022-11-20T08:23:25.372Z,13.80
2022-11-20T08:24:27.515Z,13.80
2022-11-20T08:25:31.199Z,13.90
2022-11-20T08:26:33.656Z,14.00
2022-11-20T08:27:38.811Z,14.00
2022-11-20T08:28:41.186Z,13.90
2022-11-20T08:29:43.358Z,13.90
2022-11-20T08:30:47.019Z,13.90
2022-11-20T08:31:49.268Z,13.90
2022-11-20T08:32:51.378Z,13.90
2022-11-20T08:33:53.982Z,13.90
2022-11-20T08:34:56.102Z,13.90
2022-11-20T08:36:05.409Z,13.80
2022-11-20T08:37:07.711Z,13.90
2022-11-20T08:38:10.676Z,13.90
2022-11-20T08:39:14.240Z,14.00
2022-11-20T08:40:19.714Z,14.00
2022-11-20T08:41:26.592Z,14.10
2022-11-20T08:42:28.765Z,14.10
2022-11-20T08:43:31.124Z,14.20
2022-11-20T08:44:33.495Z,14.20
2022-11-20T08:45:35.762Z,14.30
2022-11-20T08:46:44.674Z,14.30
2022-11-20T08:47:47.361Z,14.30
2022-11-20T08:48:50.536Z,14.30
2022-11-20T08:49:52.782Z,14.30
2022-11-20T08:50:54.925Z,14.30
2022-11-20T08:51:58.011Z,14.30
2022-11-20T08:53:06.916Z,14.30
2022-11-20T08:54:09.619Z,14.30
2022-11-20T08:55:12.234Z,14.30
2022-11-20T08:56:14.329Z,14.30
2022-11-20T08:57:16.491Z,14.30
2022-11-20T08:58:18.751Z,14.40
2022-11-20T08:59:37.217Z,14.40
2022-11-20T09:00:43.029Z,14.40
2022-11-20T09:01:45.338Z,14.50
2022-11-20T09:02:47.542Z,14.50
2022-11-20T09:03:50.267Z,14.60
2022-11-20T09:04:52.640Z,14.70
2022-11-20T09:06:02.975Z,14.70
2022-11-20T09:07:05.138Z,14.80
2022-11-20T09:08:07.528Z,14.90
2022-11-20T09:09:09.550Z,15.10
2022-11-20T09:10:27.098Z,15.20
2022-11-20T09:11:29.706Z,15.30
2022-11-20T09:12:31.834Z,15.50
2022-11-20T09:13:35.813Z,15.60
2022-11-20T09:14:37.915Z,15.70
2022-11-20T09:15:40.066Z,15.80
2022-11-20T09:16:42.351Z,15.90
2022-11-20T09:17:55.357Z,16.00
2022-11-20T09:19:20.713Z,16.10
2022-11-20T09:20:20.018Z,16.00
2022-11-20T09:21:24.002Z,16.10
2022-11-20T09:22:26.321Z,16.10
2022-11-20T09:23:29.162Z,16.00
2022-11-20T09:24:31.296Z,16.00
2022-11-20T09:25:33.527Z,16.00
2022-11-20T09:26:35.608Z,16.00
2022-11-20T09:27:37.696Z,15.90
2022-11-20T09:28:39.920Z,15.90
2022-11-20T09:29:42.047Z,15.90
2022-11-20T09:30:44.288Z,16.00
2022-11-20T09:31:46.578Z,16.00
2022-11-20T09:32:48.683Z,16.00
2022-11-20T09:33:51.148Z,16.10
2022-11-20T09:34:53.439Z,16.10
2022-11-20T09:35:55.649Z,16.10
2022-11-20T09:37:01.518Z,16.10
2022-11-20T09:38:07.686Z,16.20
2022-11-20T09:39:09.892Z,16.20
2022-11-20T09:40:24.549Z,16.20
2022-11-20T09:41:42.073Z,16.20
2022-11-20T09:43:07.734Z,16.20
2022-11-20T09:44:48.422Z,16.20
2022-11-20T09:45:53.372Z,16.10
2022-11-20T09:47:19.066Z,16.20
2022-11-20T09:48:57.131Z,16.30
2022-11-20T09:50:44.303Z,16.30
2022-11-20T09:51:55.502Z,16.20
2022-11-20T09:53:19.087Z,16.30
2022-11-20T09:54:36.795Z,16.20
2022-11-20T09:55:39.861Z,16.20
2022-11-20T09:56:46.234Z,16.20
2022-11-20T09:57:51.704Z,16.20
2022-11-20T09:58:58.813Z,16.20
2022-11-20T10:00:03.663Z,16.20
2022-11-20T10:01:17.621Z,16.30
2022-11-20T10:02:25.739Z,16.30
2022-11-20T10:03:57.037Z,16.40
2022-11-20T10:05:08.135Z,16.40
2022-11-20T10:06:16.757Z,16.40
2022-11-20T10:07:37.758Z,16.40
2022-11-20T10:08:53.066Z,16.50
2022-11-20T10:09:57.309Z,16.50
2022-11-20T10:11:22.874Z,16.60
2022-11-20T10:12:58.899Z,16.60
2022-11-20T10:14:01.469Z,16.70
2022-11-20T10:15:13.949Z,16.70
2022-11-20T10:16:41.176Z,16.80
2022-11-20T10:18:02.175Z,16.90
2022-11-20T10:19:16.768Z,16.80
2022-11-20T10:20:44.898Z,17.00
2022-11-20T10:22:07.144Z,17.10
2022-11-20T10:23:30.455Z,17.10
2022-11-20T10:24:49.367Z,17.30
2022-11-20T10:26:17.271Z,17.50
2022-11-20T10:27:28.639Z,17.50
2022-11-20T10:28:57.070Z,17.30
2022-11-20T10:30:13.004Z,17.30
2022-11-20T10:31:28.259Z,17.20
2022-11-20T10:32:46.814Z,17.10
2022-11-20T10:34:19.358Z,17.10
2022-11-20T10:35:15.169Z,17.10
2022-11-20T10:36:38.001Z,17.10
2022-11-20T10:37:45.455Z,17.20
2022-11-20T10:38:59.740Z,17.20
2022-11-20T10:40:33.055Z,17.10
2022-11-20T10:41:41.609Z,16.90
2022-11-20T10:42:52.235Z,16.90
2022-11-20T10:44:03.130Z,16.90
2022-11-20T10:45:25.942Z,16.90
2022-11-20T10:46:44.938Z,16.80
2022-11-20T10:47:47.036Z,16.80
2022-11-20T10:48:50.875Z,16.80
2022-11-20T10:49:56.599Z,16.90
2022-11-20T10:51:28.462Z,16.90
2022-11-20T10:52:52.039Z,16.90
2022-11-20T10:54:00.393Z,16.90
2022-11-20T10:55:25.337Z,17.00
2022-11-20T10:56:51.424Z,16.90
2022-11-20T10:58:25.708Z,16.90
2022-11-20T10:59:51.491Z,16.90
2022-11-20T11:00:53.850Z,17.10
2022-11-20T11:01:56.161Z,17.20
2022-11-20T11:03:03.433Z,17.30
2022-11-20T11:04:30.440Z,17.30
2022-11-20T11:06:03.357Z,17.30
2022-11-20T11:07:17.461Z,17.40
2022-11-20T11:08:21.069Z,17.30
2022-11-20T11:09:33.875Z,17.30
2022-11-20T11:10:55.887Z,17.30
2022-11-20T11:12:02.934Z,17.30
2022-11-20T11:13:08.268Z,17.30
2022-11-20T11:14:15.737Z,17.20
2022-11-20T11:15:27.086Z,17.20
2022-11-20T11:16:29.326Z,17.10
2022-11-20T11:17:35.701Z,17.10
2022-11-20T11:18:40.851Z,17.10
2022-11-20T11:19:43.014Z,17.10
2022-11-20T11:20:52.170Z,17.20
2022-11-20T11:21:57.948Z,17.10
2022-11-20T11:23:01.099Z,17.10
2022-11-20T11:24:26.765Z,17.10
2022-11-20T11:25:35.933Z,17.00
2022-11-20T11:26:38.229Z,16.90
2022-11-20T11:27:50.768Z,16.80
2022-11-20T11:29:05.020Z,16.80
2022-11-20T11:30:16.325Z,16.70
2022-11-20T11:31:26.637Z,16.70
2022-11-20T11:32:28.747Z,16.60
2022-11-20T11:33:37.027Z,16.60
2022-11-20T11:34:39.587Z,16.60
2022-11-20T11:35:58.320Z,16.60
2022-11-20T11:37:04.422Z,16.60
2022-11-20T11:38:13.558Z,16.50
2022-11-20T11:39:18.888Z,16.50
2022-11-20T11:40:24.266Z,16.50
2022-11-20T11:41:33.214Z,16.40
2022-11-20T11:42:35.586Z,16.40
2022-11-20T11:43:57.580Z,16.40
2022-11-20T11:45:07.237Z,16.40
2022-11-20T11:46:25.054Z,16.40
2022-11-20T11:47:37.873Z,16.30
2022-11-20T11:48:40.389Z,16.30
2022-11-20T11:49:42.623Z,16.40
2022-11-20T11:50:51.499Z,16.30
2022-11-20T11:52:02.972Z,16.40
2022-11-20T11:53:17.760Z,16.30
2022-11-20T11:54:31.540Z,16.30
2022-11-20T11:55:51.147Z,16.30
2022-11-20T11:56:54.619Z,16.30
2022-11-20T11:58:20.027Z,16.30
2022-11-20T11:59:33.887Z,16.40
2022-11-20T12:00:38.237Z,16.40
2022-11-20T12:01:50.068Z,16.40
2022-11-20T12:02:55.896Z,16.40
2022-11-20T12:04:35.890Z,16.40
2022-11-20T12:05:44.389Z,16.50
2022-11-20T12:06:52.862Z,16.50
2022-11-20T12:08:12.778Z,16.50
2022-11-20T12:09:15.161Z,16.50
2022-11-20T12:10:23.300Z,16.60
2022-11-20T12:11:53.623Z,16.70
2022-11-20T12:13:45.197Z,16.70
2022-11-20T12:14:51.327Z,16.70
2022-11-20T12:15:54.347Z,16.80
2022-11-20T12:16:58.701Z,16.80
2022-11-20T12:18:01.770Z,16.80
2022-11-20T12:19:11.336Z,16.80
2022-11-20T12:20:23.573Z,16.90
2022-11-20T12:21:34.634Z,16.90
2022-11-20T12:22:57.956Z,17.00
2022-11-20T12:24:02.958Z,17.00
2022-11-20T12:25:19.865Z,17.20
2022-11-20T12:26:49.315Z,17.30
2022-11-20T12:27:57.414Z,17.40
2022-11-20T12:29:18.099Z,17.50
2022-11-20T12:30:21.564Z,17.50
2022-11-20T12:31:54.427Z,17.50
2022-11-20T12:33:14.800Z,17.60
2022-11-20T12:34:25.365Z,17.70
2022-11-20T12:35:46.870Z,17.80
2022-11-20T12:37:02.381Z,17.90
2022-11-20T12:38:23.527Z,18.00
2022-11-20T12:39:40.737Z,18.00
2022-11-20T12:40:51.305Z,18.00
2022-11-20T12:42:37.104Z,18.00
2022-11-20T12:44:22.741Z,18.00
2022-11-20T12:46:00.873Z,18.00
2022-11-20T12:47:14.945Z,17.90
2022-11-20T12:48:31.957Z,17.80
2022-11-20T12:49:48.386Z,17.70
2022-11-20T12:51:21.347Z,17.60
2022-11-20T12:52:41.772Z,17.50
2022-11-20T12:53:52.858Z,17.30
2022-11-20T12:55:31.305Z,17.40
2022-11-20T12:56:53.626Z,17.20
2022-11-20T12:58:02.677Z,17.20
2022-11-20T12:59:31.586Z,17.10
2022-11-20T13:00:35.579Z,17.00
2022-11-20T13:02:13.477Z,16.80
2022-11-20T13:03:29.412Z,16.60
2022-11-20T13:04:37.188Z,16.60
2022-11-20T13:05:42.177Z,16.40
2022-11-20T13:06:46.152Z,16.30
2022-11-20T13:07:51.613Z,16.20
2022-11-20T13:08:57.573Z,16.20
2022-11-20T13:10:01.422Z,16.20
2022-11-20T13:11:18.196Z,16.10
2022-11-20T13:12:41.834Z,16.00
2022-11-20T13:14:21.249Z,15.80
2022-11-20T13:15:34.953Z,15.80
2022-11-20T13:16:48.705Z,15.70
2022-11-20T13:17:58.974Z,15.70
2022-11-20T13:19:06.572Z,15.70
2022-11-20T13:20:17.813Z,15.70
2022-11-20T13:21:23.856Z,15.70
2022-11-20T13:22:43.895Z,15.80
2022-11-20T13:23:46.167Z,15.70
2022-11-20T13:24:52.987Z,15.70
2022-11-20T13:26:24.554Z,15.60
2022-11-20T13:27:26.762Z,15.50
2022-11-20T13:28:31.228Z,15.50
2022-11-20T13:29:37.962Z,15.50
2022-11-20T13:30:55.112Z,15.40
2022-11-20T13:32:14.930Z,15.40
2022-11-20T13:33:38.046Z,15.40
2022-11-20T13:34:41.021Z,15.30
2022-11-20T13:35:44.071Z,15.30
2022-11-20T13:36:57.544Z,15.20
2022-11-20T13:38:07.728Z,15.10
2022-11-20T13:39:10.438Z,15.00
2022-11-20T13:40:14.036Z,15.00
2022-11-20T13:41:41.157Z,15.00
2022-11-20T13:42:55.633Z,15.00
2022-11-20T13:44:10.424Z,15.00
2022-11-20T13:45:28.333Z,15.00
2022-11-20T13:46:44.476Z,14.90
2022-11-20T13:47:52.603Z,14.90
2022-11-20T13:48:56.374Z,15.00
2022-11-20T13:50:00.448Z,15.00
2022-11-20T13:51:14.367Z,14.90
2022-11-20T13:52:35.301Z,14.90
2022-11-20T13:53:48.414Z,14.90
2022-11-20T13:55:12.202Z,14.80
2022-11-20T13:56:55.800Z,14.80
2022-11-20T13:57:58.009Z,14.80
2022-11-20T13:59:04.816Z,14.80
2022-11-20T14:00:21.050Z,14.70
2022-11-20T14:01:26.567Z,14.70
2022-11-20T14:02:31.217Z,14.70
2022-11-20T14:04:04.465Z,14.60
2022-11-20T14:05:01.025Z,14.70
2022-11-20T14:06:16.160Z,14.60
2022-11-20T14:07:21.566Z,14.60
2022-11-20T14:08:49.905Z,14.60
2022-11-20T14:09:57.424Z,14.60
2022-11-20T14:11:20.096Z,14.50
2022-11-20T14:12:31.077Z,14.50
2022-11-20T14:13:33.237Z,14.50
2022-11-20T14:14:37.464Z,14.50
2022-11-20T14:15:44.768Z,14.40
2022-11-20T14:16:47.918Z,14.40
2022-11-20T14:17:50.136Z,14.30
2022-11-20T14:18:52.293Z,14.30
2022-11-20T14:19:55.647Z,14.30
2022-11-20T14:21:02.572Z,14.40
2022-11-20T14:22:26.540Z,14.30
2022-11-20T14:23:30.571Z,14.30
2022-11-20T14:24:32.951Z,14.30